Time;durP1;ratioP1;P1;durP2;ratioP2;P2;SDS_P1;SDS_P2;PMS_P1;PMS_P2;Temp;Humidity;BMP_temperature;BMP_pressure;BME280_temperature;BME280_humidity;BME280_pressure;Samples;Min_cycle;Max_cycle;Signal;HPM_P1;HPM_P2
2022/09/17 00:00:54;;;;;;;8.75;7.40;;;;;;;29.19;67.75;100792.47;5077906;28;66826;-37
2022/09/17 00:03:28;;;;;;;9.73;8.65;;;;;;;29.16;68.77;100793.72;5076298;28;70271;-37
2022/09/17 00:06:09;;;;;;;9.45;7.93;;;;;;;29.31;68.16;100817.81;5066406;28;66640;-37
2022/09/17 00:08:41;;;;;;;14.73;8.73;;;;;;;29.29;70.45;100803.69;5074461;28;70565;-36
2022/09/17 00:11:20;;;;;;;12.63;8.80;;;;;;;29.01;71.42;100762.56;5065223;28;67032;-35
2022/09/17 00:13:53;;;;;;;14.05;9.35;;;;;;;29.33;71.03;100815.72;5077019;27;69425;-39
2022/09/17 00:16:37;;;;;;;34.30;21.40;;;;;;;28.94;72.21;100763.41;5076275;28;67044;-38
2022/09/17 00:19:19;;;;;;;54.95;31.88;;;;;;;29.38;72.72;100817.78;5076299;28;71233;-36
2022/09/17 00:21:51;;;;;;;67.15;28.75;;;;;;;29.48;71.37;100839.00;5076220;27;66849;-36
2022/09/17 00:24:23;;;;;;;49.15;23.65;;;;;;;29.49;72.92;100840.63;5079901;28;70946;-36
2022/09/17 00:26:56;;;;;;;46.78;22.63;;;;;;;29.60;72.21;100842.69;5078914;28;67071;-37
2022/09/17 00:29:28;;;;;;;40.28;18.95;;;;;;;29.67;71.07;100853.50;5075337;28;70975;-39
2022/09/17 00:32:01;;;;;;;;;;;;;;;29.22;74.00;100826.34;5080586;28;66921;-38
2022/09/17 00:34:33;;;;;;;34.33;15.90;;;;;;;29.57;73.22;100838.53;5069751;28;70009;-36
2022/09/17 00:37:05;;;;;;;33.60;14.77;;;;;;;29.66;72.60;100847.25;5072501;28;65989;-38
2022/09/17 00:39:37;;;;;;;;;;;;;;;29.43;74.02;100857.69;5068080;28;69818;-37
2022/09/17 00:42:12;;;;;;;26.90;13.95;;;;;;;29.65;73.78;100867.25;5075635;27;67074;-39
2022/09/17 00:44:47;;;;;;;23.25;12.15;;;;;;;29.80;69.00;100862.38;5073376;28;70963;-38
2022/09/17 00:47:39;;;;;;;19.30;11.00;;;;;;;29.75;69.15;100867.59;5072797;28;67178;-38
2022/09/17 00:50:37;;;;;;;16.80;10.57;;;;;;;29.89;68.24;100862.16;5079472;28;69961;-38
2022/09/17 00:53:16;;;;;;;20.77;10.48;;;;;;;29.94;67.87;100875.88;5025399;28;65929;-38
2022/09/17 00:55:56;;;;;;;18.10;9.10;;;;;;;29.63;67.90;100809.84;5081107;27;69953;-37
2022/09/17 00:58:31;;;;;;;14.98;9.25;;;;;;;30.01;67.82;100866.69;5078836;27;66538;-36
2022/09/17 01:01:10;;;;;;;19.33;9.07;;;;;;;30.01;67.74;100868.56;5079365;28;71138;-36
2022/09/17 01:03:43;;;;;;;17.00;9.32;;;;;;;30.06;67.62;100858.75;5062563;28;66088;-37
2022/09/17 01:06:33;;;;;;;24.02;10.07;;;;;;;29.99;73.50;100873.34;5077690;28;70730;-37
2022/09/17 01:09:23;;;;;;;12.68;9.13;;;;;;;29.94;73.20;100892.09;5078860;28;67015;-37
2022/09/17 01:12:16;;;;;;;11.40;9.55;;;;;;;29.60;74.05;100815.66;5076160;28;70194;-38
2022/09/17 01:15:22;;;;;;;16.10;9.07;;;;;;;29.97;71.20;100880.84;5080394;28;67069;-38
2022/09/17 01:18:17;;;;;;;13.57;8.57;;;;;;;30.02;69.63;100881.88;5080011;28;70870;-37
2022/09/17 01:21:10;;;;;;;10.90;8.30;;;;;;;30.16;69.48;100879.09;5077650;28;65947;-37
2022/09/17 01:24:06;;;;;;;10.60;7.88;;;;;;;29.62;69.37;100791.94;5078798;28;71649;-35
2022/09/17 01:26:58;;;;;;;11.35;8.75;;;;;;;30.12;69.23;100867.91;5075228;28;67282;-36
2022/09/17 01:29:51;;;;;;;10.50;7.88;;;;;;;30.27;69.03;100868.47;5039568;27;70921;-37
2022/09/17 01:32:30;;;;;;;11.07;7.93;;;;;;;30.28;68.73;100867.44;5079502;28;65959;-38
2022/09/17 01:35:23;;;;;;;13.40;8.63;;;;;;;30.39;68.89;100862.34;5079753;28;70522;-36
2022/09/17 01:38:33;;;;;;;18.77;8.55;;;;;;;30.33;68.54;100864.06;5078483;28;66347;-37
2022/09/17 01:41:08;;;;;;;20.88;9.43;;;;;;;30.43;68.78;100864.41;5077448;28;70869;-37
2022/09/17 01:43:59;;;;;;;15.85;9.35;;;;;;;30.48;68.49;100866.47;5076135;27;67661;-36
2022/09/17 01:46:47;;;;;;;14.15;9.13;;;;;;;29.95;68.40;100788.28;5077500;27;70505;-37
2022/09/17 01:49:24;;;;;;;16.88;9.85;;;;;;;30.55;68.82;100872.66;5072647;27;67252;-38
2022/09/17 01:51:56;;;;;;;20.92;9.50;;;;;;;30.57;69.09;100862.47;5081838;28;70548;-38
2022/09/17 01:54:39;;;;;;;17.70;8.95;;;;;;;30.59;68.43;100863.06;5065767;28;66826;-37
2022/09/17 01:57:31;;;;;;;13.65;8.85;;;;;;;30.55;68.68;100856.41;5069514;28;70628;-36
2022/09/17 02:00:10;;;;;;;25.37;9.73;;;;;;;30.64;68.73;100852.38;5079175;28;66539;-37
2022/09/17 02:03:01;;;;;;;23.25;10.65;;;;;;;30.23;68.39;100777.97;5076340;28;70350;-38
2022/09/17 02:05:53;;;;;;;25.17;10.40;;;;;;;30.64;68.71;100846.16;5077872;28;67164;-36
2022/09/17 02:08:28;;;;;;;;;;;;;;;30.34;70.08;100860.31;5080217;27;70727;-37
2022/09/17 02:11:16;;;;;;;21.48;9.00;;;;;;;30.67;69.15;100854.69;5080317;27;67040;-37
2022/09/17 02:14:02;;;;;;;25.88;9.80;;;;;;;30.78;68.74;100860.41;5073227;27;69740;-39
2022/09/17 02:16:39;;;;;;;16.60;9.20;;;;;;;30.81;68.76;100877.09;5072699;28;67175;-37
2022/09/17 02:19:20;;;;;;;18.15;8.63;;;;;;;30.41;68.76;100787.19;5069939;28;70718;-36
2022/09/17 02:22:00;;;;;;;23.70;8.67;;;;;;;30.42;68.61;100781.56;5079876;28;66370;-36
2022/09/17 02:25:05;;;;;;;21.60;9.60;;;;;;;30.76;68.88;100851.69;5076951;28;71172;-37
2022/09/17 02:28:02;;;;;;;18.15;8.23;;;;;;;30.39;68.88;100776.56;5052163;27;67443;-37
2022/09/17 02:30:35;;;;;;;24.63;8.75;;;;;;;30.94;68.91;100846.38;5080655;28;70571;-39
2022/09/17 02:33:11;;;;;;;22.98;8.80;;;;;;;30.87;68.64;100832.88;5080136;28;67014;-37
2022/09/17 02:35:45;;;;;;;14.63;8.13;;;;;;;30.88;68.39;100822.88;5077530;28;70919;-38
2022/09/17 02:38:30;;;;;;;19.95;8.68;;;;;;;30.12;68.39;100700.16;5060749;28;66873;-41
2022/09/17 02:41:16;;;;;;;23.42;8.02;;;;;;;31.04;68.20;100838.56;5075702;27;70141;-36
2022/09/17 02:44:10;;;;;;;27.25;8.45;;;;;;;30.99;69.21;100851.13;5070690;28;67293;-39
2022/09/17 02:46:52;;;;;;;17.80;7.80;;;;;;;31.10;68.59;100834.97;5076782;28;70771;-37
2022/09/17 02:49:48;;;;;;;21.40;8.43;;;;;;;30.94;68.47;100822.00;5067860;28;66544;-37
2022/09/17 02:52:57;;;;;;;16.15;7.47;;;;;;;31.06;68.60;100841.03;5072805;28;70275;-38
2022/09/17 02:56:02;;;;;;;21.25;7.75;;;;;;;31.05;68.91;100847.53;5075622;28;66618;-37
2022/09/17 02:59:00;;;;;;;19.73;7.43;;;;;;;31.13;68.22;100831.81;5053227;28;70755;-37
2022/09/17 03:01:36;;;;;;;17.10;7.47;;;;;;;31.23;67.99;100825.03;5078554;28;66720;-37
2022/09/17 03:04:12;;;;;;;37.40;9.35;;;;;;;31.12;67.73;100799.50;5075141;28;70795;-38
2022/09/17 03:06:47;;;;;;;31.08;8.73;;;;;;;31.28;67.93;100823.31;5078709;27;66869;-37
2022/09/17 03:09:20;;;;;;;24.95;8.80;;;;;;;31.29;67.94;100816.03;5072665;28;70449;-38
2022/09/17 03:11:52;;;;;;;27.08;8.00;;;;;;;31.33;67.37;100825.34;5078537;27;66196;-38
2022/09/17 03:14:24;;;;;;;27.08;8.07;;;;;;;31.35;67.38;100817.84;5079716;28;71572;-37
2022/09/17 03:16:57;;;;;;;28.35;8.57;;;;;;;31.25;67.56;100806.69;5075957;28;66991;-39
2022/09/17 03:19:29;;;;;;;25.70;7.60;;;;;;;31.10;69.06;100807.06;5077393;28;71116;-38
2022/09/17 03:22:01;;;;;;;30.52;7.50;;;;;;;31.04;69.86;100795.22;5077650;28;66323;-40
2022/09/17 03:24:34;;;;;;;22.60;6.97;;;;;;;30.88;70.47;100771.41;5075081;28;70688;-39
2022/09/17 03:27:06;;;;;;;28.40;7.70;;;;;;;30.96;70.34;100787.38;5079492;28;66592;-39
2022/09/17 03:29:38;;;;;;;20.52;6.22;;;;;;;30.95;70.38;100791.13;5074405;27;70930;-39
2022/09/17 03:32:10;;;;;;;23.05;6.72;;;;;;;30.94;71.30;100781.34;5080516;28;66213;-37
2022/09/17 03:34:45;;;;;;;20.42;5.60;;;;;;;30.92;71.10;100773.47;5064597;28;70616;-40
2022/09/17 03:37:17;;;;;;;15.07;6.18;;;;;;;30.43;71.47;100696.63;5069885;27;66760;-37
2022/09/17 03:39:50;;;;;;;11.20;5.93;;;;;;;30.90;71.18;100777.44;5067566;28;70649;-37
2022/09/17 03:42:22;;;;;;;15.02;5.82;;;;;;;30.63;71.44;100723.50;5070269;28;65792;-39
2022/09/17 03:44:55;;;;;;;6.57;4.68;;;;;;;30.95;71.63;100764.03;5075356;28;69943;-37
2022/09/17 03:47:28;;;;;;;8.25;4.97;;;;;;;30.93;71.84;100755.34;5074551;28;67157;-38
2022/09/17 03:50:00;;;;;;;8.95;4.88;;;;;;;30.93;71.83;100750.75;5070199;27;69795;-37
2022/09/17 03:52:33;;;;;;;12.18;5.03;;;;;;;30.87;71.42;100734.53;5069327;27;66808;-39
2022/09/17 03:55:06;;;;;;;5.57;4.68;;;;;;;30.87;71.02;100729.97;5072147;27;70453;-39
2022/09/17 03:57:38;;;;;;;9.10;4.72;;;;;;;30.98;71.82;100746.50;5066345;27;67122;-38
2022/09/17 04:00:11;;;;;;;;;;;;;;;30.77;72.16;100740.44;5064000;28;70897;-39
2022/09/17 04:02:44;;;;;;;7.75;3.97;;;;;;;31.02;70.79;100737.72;5069200;27;67344;-38
2022/09/17 04:05:16;;;;;;;8.32;4.93;;;;;;;31.02;71.18;100735.03;5068929;28;69964;-37
2022/09/17 04:07:48;;;;;;;8.25;3.92;;;;;;;31.03;71.15;100728.53;5057396;28;67000;-38
2022/09/17 04:10:22;;;;;;;5.72;4.00;;;;;;;31.04;70.79;100724.78;5071606;28;70156;-38
2022/09/17 04:12:54;;;;;;;5.30;3.63;;;;;;;31.07;70.86;100718.09;5068200;28;66415;-37
2022/09/17 04:15:26;;;;;;;6.40;3.88;;;;;;;31.07;70.75;100718.91;5068073;28;70399;-37
2022/09/17 04:17:59;;;;;;;4.00;3.60;;;;;;;31.15;70.69;100710.50;5075607;27;67319;-39
2022/09/17 04:20:31;;;;;;;6.53;4.18;;;;;;;31.15;70.14;100715.91;5068954;27;69719;-39
2022/09/17 04:23:05;;;;;;;5.43;3.65;;;;;;;31.14;69.85;100714.25;5071845;27;66245;-38
2022/09/17 04:25:38;;;;;;;4.30;3.72;;;;;;;31.10;70.53;100685.97;5073353;28;71104;-39
2022/09/17 04:28:10;;;;;;;10.45;4.28;;;;;;;31.14;70.06;100676.31;5070460;28;66632;-40
2022/09/17 04:30:43;;;;;;;7.45;3.60;;;;;;;31.18;70.22;100682.13;5067363;27;69695;-38
2022/09/17 04:33:15;;;;;;;4.13;3.60;;;;;;;31.21;69.95;100683.56;5077611;27;66103;-40
2022/09/17 04:35:48;;;;;;;4.55;3.60;;;;;;;31.15;69.65;100650.88;5065951;27;70550;-37
2022/09/17 04:38:21;;;;;;;9.02;3.80;;;;;;;31.27;69.80;100658.25;5066323;28;67386;-38
2022/09/17 04:40:56;;;;;;;3.97;3.50;;;;;;;31.27;69.85;100666.38;5073137;27;70667;-40
2022/09/17 04:43:28;;;;;;;6.40;3.63;;;;;;;31.26;69.63;100645.72;5065619;27;65854;-37
2022/09/17 04:46:01;;;;;;;9.60;3.80;;;;;;;31.33;69.54;100646.47;5075725;27;70514;-39
2022/09/17 04:48:33;;;;;;;3.53;3.20;;;;;;;31.33;69.21;100651.91;5076429;28;67011;-38
2022/09/17 04:51:05;;;;;;;4.80;3.70;;;;;;;31.37;68.45;100647.69;5066450;28;71153;-37
2022/09/17 04:53:37;;;;;;;5.05;3.33;;;;;;;31.38;68.62;100652.91;5076507;28;66197;-38
2022/09/17 04:56:10;;;;;;;4.45;3.10;;;;;;;31.34;68.62;100637.28;5059832;28;70689;-38
2022/09/17 04:58:42;;;;;;;4.78;3.50;;;;;;;31.29;68.60;100618.19;5074042;28;67693;-37
2022/09/17 05:01:17;;;;;;;4.18;3.85;;;;;;;31.38;68.53;100623.09;5066329;28;70334;-37
2022/09/17 05:03:49;;;;;;;4.93;3.15;;;;;;;31.46;68.38;100624.66;5072078;28;67099;-36
2022/09/17 05:06:22;;;;;;;6.72;3.70;;;;;;;31.42;68.46;100618.03;5073821;27;70383;-37
2022/09/17 05:08:54;;;;;;;4.85;3.00;;;;;;;31.46;68.35;100619.22;5073676;28;66597;-37
2022/09/17 05:11:26;;;;;;;5.45;3.15;;;;;;;31.46;68.42;100613.81;5072433;28;70261;-41
2022/09/17 05:13:59;;;;;;;6.38;3.30;;;;;;;31.46;68.61;100616.53;5070789;28;66818;-41
2022/09/17 05:16:33;;;;;;;3.55;3.05;;;;;;;31.43;68.26;100608.84;5070383;27;70617;-39
2022/09/17 05:19:06;;;;;;;4.10;2.60;;;;;;;31.44;68.34;100609.69;5070628;28;67573;-39
2022/09/17 05:21:39;;;;;;;3.33;2.80;;;;;;;31.47;68.09;100599.19;5073853;28;70312;-38
2022/09/17 05:24:12;;;;;;;5.55;3.17;;;;;;;31.38;68.06;100574.31;5073621;28;67528;-39
2022/09/17 05:26:45;;;;;;;8.90;2.45;;;;;;;31.46;68.22;100586.72;5073294;28;70827;-39
2022/09/17 05:29:17;;;;;;;3.50;2.63;;;;;;;31.40;67.80;100571.38;5072681;28;66865;-40
2022/09/17 05:31:50;;;;;;;2.95;2.65;;;;;;;31.37;67.91;100550.97;5079927;28;71130;-39
2022/09/17 05:34:23;;;;;;;3.17;2.45;;;;;;;31.50;68.04;100577.03;5077661;27;66888;-38
2022/09/17 05:36:58;;;;;;;5.72;3.17;;;;;;;31.53;67.76;100557.59;5067476;28;70757;-39
2022/09/17 05:39:31;;;;;;;4.20;2.80;;;;;;;31.54;68.13;100553.03;5078003;27;65037;-42
2022/09/17 05:42:04;;;;;;;5.40;3.28;;;;;;;31.54;68.61;100556.56;5077411;28;71175;-39
2022/09/17 05:44:36;;;;;;;4.55;2.88;;;;;;;31.32;67.06;100526.41;5079164;28;66741;-39
2022/09/17 05:47:09;;;;;;;6.38;2.55;;;;;;;31.34;65.60;100547.84;5095967;27;69622;-36
2022/09/17 05:49:42;;;;;;;9.32;2.60;;;;;;;31.27;64.21;100550.66;5078524;28;66876;-37
2022/09/17 05:52:15;;;;;;;2.75;2.00;;;;;;;31.06;63.54;100522.19;5077689;28;70751;-37
2022/09/17 05:54:47;;;;;;;2.60;2.40;;;;;;;31.13;62.26;100538.38;5075425;28;66984;-37
2022/09/17 05:57:20;;;;;;;9.10;2.60;;;;;;;31.07;61.37;100532.00;5077421;28;71047;-38
2022/09/17 05:59:52;;;;;;;5.25;2.22;;;;;;;31.02;60.50;100523.72;5081637;28;66932;-37
2022/09/17 06:02:25;;;;;;;3.55;1.70;;;;;;;30.97;59.67;100507.31;5078469;27;70901;-38
2022/09/17 06:05:00;;;;;;;3.22;2.00;;;;;;;30.95;58.92;100498.59;5080241;28;66494;-37
2022/09/17 06:07:35;;;;;;;2.05;1.73;;;;;;;30.61;58.25;100444.06;5081780;28;70898;-35
2022/09/17 06:10:08;;;;;;;5.22;1.75;;;;;;;30.89;58.15;100488.69;5078061;27;66390;-36
2022/09/17 06:12:40;;;;;;;2.30;1.98;;;;;;;30.88;57.73;100490.59;5080637;27;70502;-36
2022/09/17 06:15:13;;;;;;;15.93;2.70;;;;;;;30.92;57.67;100493.66;5078650;28;66391;-36
2022/09/17 06:17:46;;;;;;;15.32;2.67;;;;;;;30.51;56.96;100432.97;5080373;27;71178;-36
2022/09/17 06:20:21;;;;;;;2.53;2.00;;;;;;;30.85;55.80;100487.50;5081049;27;66297;-36
2022/09/17 06:22:57;;;;;;;5.28;3.13;;;;;;;30.81;55.59;100479.00;5079339;27;70331;-38
2022/09/17 06:25:30;;;;;;;4.85;2.35;;;;;;;30.75;54.77;100465.53;5069980;28;66062;-37
2022/09/17 06:28:03;;;;;;;4.03;2.70;;;;;;;30.79;54.40;100478.41;5076861;28;71213;-36
2022/09/17 06:30:36;;;;;;;4.57;2.67;;;;;;;30.82;54.61;100477.16;5075763;27;65874;-36
2022/09/17 06:33:08;;;;;;;2.50;2.30;;;;;;;30.77;54.03;100463.44;5077910;28;70907;-38
2022/09/17 06:35:41;;;;;;;6.20;2.10;;;;;;;30.86;53.57;100462.91;5079623;27;66159;-37
2022/09/17 06:38:14;;;;;;;6.47;2.67;;;;;;;30.84;52.98;100458.75;5077499;28;70738;-35
2022/09/17 06:40:55;;;;;;;2.38;1.92;;;;;;;30.80;53.12;100458.41;5078543;28;66686;-37
2022/09/17 06:43:28;;;;;;;9.88;2.35;;;;;;;30.80;52.51;100447.56;5077778;28;71189;-38
2022/09/17 06:46:04;;;;;;;6.53;2.40;;;;;;;30.44;51.94;100388.91;5077810;28;66379;-38
2022/09/17 06:48:37;;;;;;;6.88;3.50;;;;;;;30.78;52.08;100435.28;5076578;28;71012;-36
2022/09/17 06:51:10;;;;;;;11.98;4.20;;;;;;;30.87;52.20;100448.31;5094089;27;65982;-38
2022/09/17 06:53:43;;;;;;;14.52;3.88;;;;;;;30.81;52.02;100445.69;5078497;28;70816;-38
2022/09/17 06:56:16;;;;;;;13.18;3.63;;;;;;;30.86;51.69;100435.00;5078689;28;67336;-38
2022/09/17 06:58:48;;;;;;;12.63;3.50;;;;;;;30.85;51.23;100436.06;5074127;28;70921;-38
2022/09/17 07:01:20;;;;;;;9.88;3.50;;;;;;;30.77;51.08;100420.09;5073227;27;66707;-37
2022/09/17 07:03:53;;;;;;;8.98;3.50;;;;;;;30.79;50.96;100428.84;5074408;27;70809;-37
2022/09/17 07:06:25;;;;;;;8.13;2.90;;;;;;;30.91;50.64;100432.41;5075804;28;65827;-37
2022/09/17 07:08:58;;;;;;;7.40;3.30;;;;;;;30.86;50.50;100421.44;5074933;28;70921;-36
2022/09/17 07:11:30;;;;;;;9.35;2.50;;;;;;;30.88;50.46;100422.06;5072289;28;67460;-37
2022/09/17 07:14:04;;;;;;;6.78;2.70;;;;;;;30.89;50.06;100420.97;5077354;28;70785;-37
2022/09/17 07:16:36;;;;;;;3.58;2.13;;;;;;;30.95;49.96;100425.47;5075724;28;67502;-37
2022/09/17 07:19:08;;;;;;;2.92;1.90;;;;;;;30.86;49.32;100397.91;5077917;28;70481;-37
2022/09/17 07:21:43;;;;;;;3.00;2.05;;;;;;;30.92;49.31;100406.97;5072685;28;67148;-37
2022/09/17 07:24:15;;;;;;;4.85;2.17;;;;;;;30.86;48.78;100388.97;5077347;27;70532;-38
2022/09/17 07:26:50;;;;;;;3.70;2.35;;;;;;;30.96;48.79;100401.94;5075111;28;65980;-39
2022/09/17 07:29:25;;;;;;;2.38;2.00;;;;;;;30.96;48.78;100396.53;5075588;27;70737;-40
2022/09/17 07:31:58;;;;;;;7.65;2.35;;;;;;;30.96;48.51;100397.34;5068892;28;66127;-37
2022/09/17 07:34:30;;;;;;;3.88;2.05;;;;;;;30.96;48.16;100402.75;5073220;28;69751;-38
2022/09/17 07:37:05;;;;;;;2.90;2.13;;;;;;;30.98;48.21;100400.66;5064722;28;67240;-37
2022/09/17 07:39:42;;;;;;;3.47;2.28;;;;;;;30.90;48.08;100371.19;5075699;28;70872;-39
2022/09/17 07:42:14;;;;;;;4.68;1.88;;;;;;;30.96;47.58;100385.69;5076525;27;65845;-36
2022/09/17 07:44:49;;;;;;;4.90;2.10;;;;;;;30.97;47.73;100392.75;5067828;28;71411;-37
2022/09/17 07:47:21;;;;;;;2.30;1.30;;;;;;;31.03;47.91;100386.41;5065144;28;66951;-36
2022/09/17 07:49:53;;;;;;;2.35;2.03;;;;;;;31.06;47.68;100385.94;5078510;27;70500;-37
2022/09/17 07:52:26;;;;;;;2.47;1.50;;;;;;;31.01;47.75;100392.06;5070752;27;66835;-36
2022/09/17 07:54:58;;;;;;;3.38;1.73;;;;;;;30.93;47.55;100382.38;5067086;27;70545;-35
2022/09/17 07:57:31;;;;;;;5.82;1.75;;;;;;;30.92;47.00;100380.75;5067888;28;66764;-36
2022/09/17 08:00:03;;;;;;;3.90;1.50;;;;;;;31.04;46.62;100404.31;5076694;28;71780;-37
2022/09/17 08:02:40;;;;;;;10.23;2.22;;;;;;;31.05;46.51;100401.34;5075583;28;66546;-37
2022/09/17 08:05:13;;;;;;;1.35;1.20;;;;;;;31.07;46.44;100399.25;5072370;27;70958;-36
2022/09/17 08:07:53;;;;;;;5.68;2.38;;;;;;;31.11;46.47;100413.97;5074593;28;66132;-39
2022/09/17 08:10:26;;;;;;;2.85;1.40;;;;;;;30.88;46.37;100346.22;5076192;28;70440;-37
2022/09/17 08:12:58;;;;;;;1.98;1.75;;;;;;;31.20;46.13;100397.38;5072514;28;66792;-38
2022/09/17 08:15:31;;;;;;;1.75;1.48;;;;;;;31.24;47.08;100393.97;5077303;28;71175;-36
2022/09/17 08:18:03;;;;;;;2.38;1.50;;;;;;;31.28;46.84;100400.56;5071955;28;66947;-37
2022/09/17 08:20:35;;;;;;;5.20;1.30;;;;;;;31.29;46.98;100409.53;5071689;28;70104;-37
2022/09/17 08:23:07;;;;;;;1.70;1.42;;;;;;;31.24;47.39;100431.09;5074640;28;66690;-35
2022/09/17 08:25:40;;;;;;;1.48;1.38;;;;;;;31.27;47.18;100419.78;5067687;28;70677;-38
2022/09/17 08:28:12;;;;;;;2.08;1.58;;;;;;;31.19;46.97;100401.97;5076321;28;66419;-37
2022/09/17 08:30:47;;;;;;;2.92;1.73;;;;;;;31.26;46.52;100434.38;5077641;28;70760;-36
2022/09/17 08:33:20;;;;;;;5.60;1.70;;;;;;;31.26;47.53;100437.06;5071615;28;66920;-38
2022/09/17 08:35:54;;;;;;;4.45;2.03;;;;;;;31.29;48.19;100461.03;5072286;27;70933;-36
2022/09/17 08:38:28;;;;;;;11.57;2.95;;;;;;;31.42;54.30;100471.66;5072215;28;66760;-42
2022/09/17 08:41:10;;;;;;;5.93;3.53;;;;;;;31.60;57.83;100487.84;5068512;28;71390;-41
2022/09/17 08:43:58;;;;;;;15.85;3.38;;;;;;;31.31;59.42;100393.84;5075285;28;66732;-42
2022/09/17 08:46:59;;;;;;;5.20;4.35;;;;;;;31.66;61.16;100406.63;5070741;28;71524;-41
2022/09/17 08:50:04;;;;;;;16.83;4.35;;;;;;;31.89;62.20;100414.72;5066532;28;65995;-39
2022/09/17 08:52:58;;;;;;;20.52;4.60;;;;;;;32.05;63.00;100416.72;5060058;28;70619;-40
2022/09/17 08:56:04;;;;;;;27.63;5.05;;;;;;;31.70;64.21;100353.53;5070956;27;66842;-42
2022/09/17 08:59:01;;;;;;;29.35;4.63;;;;;;;31.68;65.37;100347.53;5065972;28;70537;-41
2022/09/17 09:02:16;;;;;;;26.00;5.15;;;;;;;32.16;65.55;100435.94;5071957;28;66559;-40
2022/09/17 09:05:03;;;;;;;23.45;4.57;;;;;;;32.24;65.18;100424.72;5075936;28;70672;-40
2022/09/17 09:08:06;;;;;;;20.00;4.82;;;;;;;31.81;64.92;100328.28;5079125;28;66188;-41
2022/09/17 09:10:55;;;;;;;24.55;5.07;;;;;;;32.23;64.63;100401.31;5076653;28;70588;-40
2022/09/17 09:13:41;;;;;;;34.35;5.38;;;;;;;31.81;64.99;100341.84;5071595;28;66707;-41
2022/09/17 09:16:18;;;;;;;13.70;5.10;;;;;;;32.31;65.84;100409.09;5070282;28;71255;-36
2022/09/17 09:18:54;;;;;;;25.15;6.07;;;;;;;32.30;65.26;100409.34;5093542;27;66863;-37
2022/09/17 09:21:28;;;;;;;15.57;6.55;;;;;;;32.33;65.16;100417.81;5077864;28;70291;-38
2022/09/17 09:24:05;;;;;;;29.55;7.72;;;;;;;32.34;64.86;100405.88;5079710;27;67014;-38
2022/09/17 09:26:49;;;;;;;23.65;6.78;;;;;;;32.33;65.05;100420.53;5080054;27;70695;-38
2022/09/17 09:29:52;;;;;;;20.95;7.90;;;;;;;31.90;65.25;100345.00;5077692;27;66649;-38
2022/09/17 09:32:43;;;;;;;24.80;9.02;;;;;;;32.28;66.27;100415.00;5083643;27;70869;-39
2022/09/17 09:35:19;;;;;;;20.80;8.30;;;;;;;32.21;65.25;100395.34;5078637;28;66939;-38
2022/09/17 09:38:12;;;;;;;30.08;8.40;;;;;;;32.33;66.41;100427.88;5074880;28;70619;-42
2022/09/17 09:41:02;;;;;;;24.55;8.40;;;;;;;32.36;67.76;100430.91;5076911;28;67063;-39
2022/09/17 09:43:42;;;;;;;19.42;7.18;;;;;;;32.34;66.28;100430.31;5078328;28;70860;-38
2022/09/17 09:46:52;;;;;;;15.88;6.50;;;;;;;32.25;67.33;100424.44;5079782;28;66222;-40
2022/09/17 09:49:55;;;;;;;16.02;6.20;;;;;;;32.29;66.64;100443.81;5073182;28;71427;-38
2022/09/17 09:52:27;;;;;;;8.43;6.10;;;;;;;32.26;66.77;100446.97;5060745;28;66891;-40
2022/09/17 09:55:09;;;;;;;11.38;6.88;;;;;;;32.29;68.78;100454.66;5079040;28;71206;-40
2022/09/17 09:57:51;;;;;;;13.45;7.07;;;;;;;31.91;68.63;100404.50;5085960;27;66043;-39
2022/09/17 10:00:31;;;;;;;12.88;7.07;;;;;;;32.28;68.82;100458.44;5072866;28;70941;-40
2022/09/17 10:03:44;;;;;;;10.13;6.43;;;;;;;32.12;68.27;100454.56;5072129;28;66300;-40
2022/09/17 10:06:20;;;;;;;16.13;6.82;;;;;;;32.25;68.55;100454.31;4996400;28;70744;-39
2022/09/17 10:08:56;;;;;;;9.73;6.35;;;;;;;32.26;68.04;100455.97;4997508;28;66457;-40
2022/09/17 10:11:32;;;;;;;14.63;6.60;;;;;;;31.78;69.02;100381.13;5046998;27;70832;-40
2022/09/17 10:14:34;;;;;;;12.57;6.53;;;;;;;32.13;68.63;100455.41;5077574;28;66793;-40
2022/09/17 10:17:21;;;;;;;10.45;5.80;;;;;;;32.18;68.90;100464.47;5067138;28;70882;-40
2022/09/17 10:20:10;;;;;;;10.02;6.40;;;;;;;32.21;69.04;100474.03;5073895;28;66697;-38
2022/09/17 10:22:46;;;;;;;12.35;6.43;;;;;;;32.30;69.17;100471.78;5073267;27;70453;-39
2022/09/17 10:25:21;;;;;;;6.85;6.20;;;;;;;32.28;69.71;100463.84;5078363;28;66288;-38
2022/09/17 10:27:56;;;;;;;15.07;6.65;;;;;;;32.24;69.96;100468.13;5071276;28;70852;-37
2022/09/17 10:30:28;;;;;;;6.82;6.18;;;;;;;32.12;70.54;100448.31;5066507;28;67812;-40
2022/09/17 10:33:24;;;;;;;9.02;6.15;;;;;;;32.02;70.63;100447.03;5072367;27;70656;-38
2022/09/17 10:36:13;;;;;;;6.85;6.03;;;;;;;32.23;71.36;100471.88;5064141;28;66139;-38
2022/09/17 10:38:46;;;;;;;6.97;6.00;;;;;;;32.17;71.93;100467.41;5078702;27;71219;-39
2022/09/17 10:41:20;;;;;;;9.35;6.10;;;;;;;32.23;71.53;100482.75;5076984;28;66602;-40
2022/09/17 10:43:52;;;;;;;15.82;6.00;;;;;;;32.23;71.49;100489.03;5074277;28;71322;-41
2022/09/17 10:46:28;;;;;;;8.57;5.25;;;;;;;32.15;72.23;100493.97;5068343;28;66632;-38
2022/09/17 10:49:25;;;;;;;19.27;7.13;;;;;;;31.78;73.45;100442.66;5076453;27;70957;-40
2022/09/17 10:52:24;;;;;;;13.45;6.35;;;;;;;32.08;73.39;100506.84;5077283;28;66650;-39
2022/09/17 10:55:24;;;;;;;7.65;5.68;;;;;;;32.05;73.11;100527.97;5069038;27;70610;-38
2022/09/17 10:58:03;;;;;;;6.95;6.03;;;;;;;32.12;72.79;100540.56;5068362;28;66381;-40
2022/09/17 11:01:02;;;;;;;9.02;6.47;;;;;;;32.03;73.11;100549.06;5076192;28;70649;-38
2022/09/17 11:03:55;;;;;;;8.30;6.35;;;;;;;32.11;72.56;100568.78;5077908;27;66090;-40
2022/09/17 11:06:50;;;;;;;10.55;6.50;;;;;;;32.02;72.57;100563.72;5069480;28;70697;-39
2022/09/17 11:09:29;;;;;;;8.50;6.75;;;;;;;32.05;71.10;100543.41;5074311;27;66620;-39
2022/09/17 11:12:42;;;;;;;7.47;6.72;;;;;;;32.00;70.61;100527.03;5070649;27;70373;-41
2022/09/17 11:15:29;;;;;;;9.30;6.80;;;;;;;32.41;70.19;100591.19;5065205;28;66734;-39
2022/09/17 11:18:22;;;;;;;6.45;5.95;;;;;;;32.36;70.58;100580.22;5077575;28;71123;-40
2022/09/17 11:21:12;;;;;;;9.18;7.13;;;;;;;32.51;69.88;100600.63;5077233;27;65814;-38
2022/09/17 11:24:03;;;;;;;7.65;7.05;;;;;;;32.51;69.91;100597.91;5075186;28;70258;-40
2022/09/17 11:26:42;;;;;;;7.78;6.97;;;;;;;32.52;69.86;100605.03;5069205;27;66596;-40
2022/09/17 11:29:47;;;;;;;12.02;7.30;;;;;;;32.03;69.92;100538.22;5075133;28;70890;-40
2022/09/17 11:32:56;;;;;;;7.57;6.88;;;;;;;32.45;69.87;100616.78;5075285;28;64867;-39
2022/09/17 11:35:52;;;;;;;8.60;7.80;;;;;;;32.31;70.14;100598.28;5070534;28;70250;-39
2022/09/17 11:38:27;;;;;;;8.98;7.45;;;;;;;32.57;68.92;100624.97;5070415;28;66590;-41
2022/09/17 11:41:11;;;;;;;8.40;6.97;;;;;;;32.09;69.33;100546.47;5075319;27;70152;-40
2022/09/17 11:44:18;;;;;;;8.43;7.30;;;;;;;32.46;69.35;100632.06;5076843;27;66729;-41
2022/09/17 11:46:59;;;;;;;13.40;7.72;;;;;;;32.53;68.90;100641.97;5072927;28;70487;-39
2022/09/17 11:49:59;;;;;;;9.97;7.97;;;;;;;32.55;68.88;100637.94;5074783;28;67831;-39
2022/09/17 11:52:43;;;;;;;9.10;7.97;;;;;;;32.55;68.95;100637.13;5077679;28;71406;-41
2022/09/17 11:55:37;;;;;;;7.63;6.93;;;;;;;32.53;69.14;100650.09;5072726;28;66355;-38
2022/09/17 11:58:48;;;;;;;9.93;8.07;;;;;;;32.46;69.55;100651.06;5068887;28;69816;-41
2022/09/17 12:01:58;;;;;;;8.20;7.47;;;;;;;32.43;69.93;100656.94;5055083;28;65983;-39
2022/09/17 12:04:31;;;;;;;9.52;7.63;;;;;;;32.56;68.76;100655.06;5059337;27;70743;-39
2022/09/17 12:07:27;;;;;;;7.70;6.88;;;;;;;32.45;69.43;100665.66;5075024;28;66956;-39
2022/09/17 12:10:38;;;;;;;8.68;7.18;;;;;;;32.42;69.44;100660.69;5073157;28;70880;-39
2022/09/17 12:13:35;;;;;;;12.20;7.50;;;;;;;32.43;69.69;100669.66;5071127;28;66623;-39
2022/09/17 12:16:36;;;;;;;8.07;7.22;;;;;;;32.47;68.94;100677.13;5071859;28;71215;-39
2022/09/17 12:19:42;;;;;;;6.95;6.45;;;;;;;32.41;69.34;100691.63;5074160;28;66953;-38
2022/09/17 12:22:15;;;;;;;7.45;6.85;;;;;;;32.48;68.88;100688.81;5074782;27;70043;-38